createdAt,value
2022-09-13T00:01:41.575Z,3.67
2022-09-13T00:04:08.391Z,3.70
2022-09-13T00:06:35.093Z,3.80
2022-09-13T00:09:01.686Z,3.33
2022-09-13T00:11:28.222Z,3.70
2022-09-13T00:13:54.753Z,3.10
2022-09-13T00:16:21.352Z,3.93
2022-09-13T00:18:48.170Z,4.67
2022-09-13T00:21:14.801Z,3.43
2022-09-13T00:23:41.647Z,3.77
2022-09-13T00:26:08.286Z,3.03
2022-09-13T00:28:34.859Z,3.70
2022-09-13T00:31:01.706Z,3.77
2022-09-13T00:33:28.432Z,3.67
2022-09-13T00:35:55.025Z,3.10
2022-09-13T00:38:21.608Z,3.47
2022-09-13T00:40:48.291Z,3.30
2022-09-13T00:43:14.797Z,3.03
2022-09-13T00:45:41.432Z,2.80
2022-09-13T00:48:08.058Z,3.37
2022-09-13T00:50:34.622Z,3.47
2022-09-13T00:53:01.178Z,3.43
2022-09-13T00:55:27.709Z,3.67
2022-09-13T00:57:54.215Z,3.70
2022-09-13T01:00:20.824Z,3.70
2022-09-13T01:02:47.540Z,3.43
2022-09-13T01:05:14.090Z,3.30
2022-09-13T01:07:41.792Z,3.40
2022-09-13T01:10:08.422Z,3.70
2022-09-13T01:12:35.291Z,4.10
2022-09-13T01:15:01.847Z,3.37
2022-09-13T01:17:28.462Z,4.33
2022-09-13T01:19:54.975Z,3.20
2022-09-13T01:22:21.571Z,3.27
2022-09-13T01:24:48.122Z,3.47
2022-09-13T01:27:14.682Z,3.47
2022-09-13T01:29:41.255Z,3.23
2022-09-13T01:32:07.875Z,3.47
2022-09-13T01:34:34.430Z,3.50
2022-09-13T01:37:01.065Z,2.70
2022-09-13T01:39:27.694Z,3.13
2022-09-13T01:41:54.625Z,3.63
2022-09-13T01:44:21.406Z,3.80
2022-09-13T01:46:47.945Z,3.33
2022-09-13T01:49:14.761Z,3.30
2022-09-13T01:51:41.883Z,3.20
2022-09-13T01:54:08.536Z,3.60
2022-09-13T01:56:35.065Z,2.77
2022-09-13T01:59:01.672Z,3.47
2022-09-13T02:01:28.334Z,3.43
2022-09-13T02:03:55.670Z,3.57
2022-09-13T02:06:22.317Z,3.60
2022-09-13T02:08:49.193Z,3.40
2022-09-13T02:11:17.083Z,3.80
2022-09-13T02:13:43.652Z,3.23
2022-09-13T02:16:10.238Z,3.33
2022-09-13T02:18:36.895Z,3.57
2022-09-13T02:21:03.410Z,3.20
2022-09-13T02:23:31.399Z,3.57
2022-09-13T02:25:57.945Z,3.03
2022-09-13T02:28:24.472Z,3.50
2022-09-13T02:30:51.541Z,3.00
2022-09-13T02:33:18.066Z,3.50
2022-09-13T02:35:44.598Z,3.57
2022-09-13T02:38:11.171Z,3.70
2022-09-13T02:40:37.686Z,3.77
2022-09-13T02:43:04.242Z,3.10
2022-09-13T02:45:31.217Z,3.10
2022-09-13T02:47:57.984Z,3.03
2022-09-13T02:50:24.992Z,3.97
2022-09-13T02:52:53.050Z,3.77
2022-09-13T02:55:21.570Z,3.60
2022-09-13T02:57:48.117Z,3.10
2022-09-13T03:00:14.657Z,3.80
2022-09-13T03:02:41.350Z,3.33
2022-09-13T03:05:07.886Z,2.47
2022-09-13T03:07:34.447Z,3.40
2022-09-13T03:10:01.291Z,3.50
2022-09-13T03:12:29.816Z,3.43
2022-09-13T03:14:56.613Z,3.87
2022-09-13T03:17:23.128Z,3.60
2022-09-13T03:19:49.738Z,3.23
2022-09-13T03:22:16.235Z,3.50
2022-09-13T03:24:42.776Z,2.90
2022-09-13T03:27:09.294Z,2.73
2022-09-13T03:29:35.844Z,3.83
2022-09-13T03:32:02.483Z,2.93
2022-09-13T03:34:29.043Z,3.57
2022-09-13T03:36:55.613Z,3.13
2022-09-13T03:39:22.166Z,3.13
2022-09-13T03:41:48.766Z,3.13
2022-09-13T03:44:15.450Z,3.10
2022-09-13T03:46:42.451Z,3.20
2022-09-13T03:49:12.197Z,3.57
2022-09-13T03:51:38.838Z,3.17
2022-09-13T03:54:05.407Z,3.03
2022-09-13T03:56:31.960Z,2.90
2022-09-13T03:58:58.477Z,3.37
2022-09-13T04:01:25.070Z,2.93
2022-09-13T04:03:56.327Z,3.27
2022-09-13T04:06:23.479Z,2.77
2022-09-13T04:08:50.162Z,3.73
2022-09-13T04:11:16.828Z,3.23
2022-09-13T04:13:43.414Z,2.80
2022-09-13T04:16:09.962Z,3.77
2022-09-13T04:18:36.569Z,3.10
2022-09-13T04:21:04.468Z,3.07
2022-09-13T04:23:31.181Z,2.97
2022-09-13T04:25:57.727Z,3.10
2022-09-13T04:28:24.288Z,2.90
2022-09-13T04:30:50.948Z,3.27
2022-09-13T04:33:17.554Z,2.90
2022-09-13T04:35:44.386Z,3.03
2022-09-13T04:38:11.063Z,3.13
2022-09-13T04:40:37.988Z,3.13
2022-09-13T04:43:04.498Z,2.67
2022-09-13T04:45:31.179Z,3.37
2022-09-13T04:47:57.747Z,3.30
2022-09-13T04:50:24.424Z,3.33
2022-09-13T04:52:51.004Z,3.50
2022-09-13T04:55:17.540Z,3.83
2022-09-13T04:57:44.130Z,3.00
2022-09-13T05:00:10.937Z,3.03
2022-09-13T05:02:37.509Z,3.20
2022-09-13T05:05:04.087Z,3.43
2022-09-13T05:07:30.614Z,3.33
2022-09-13T05:09:57.173Z,3.50
2022-09-13T05:12:23.985Z,2.60
2022-09-13T05:14:50.503Z,3.07
2022-09-13T05:17:17.143Z,3.40
2022-09-13T05:19:43.746Z,2.80
2022-09-13T05:22:10.313Z,3.60
2022-09-13T05:24:36.860Z,2.37
2022-09-13T05:27:03.389Z,2.80
2022-09-13T05:29:29.950Z,3.60
2022-09-13T05:31:56.471Z,2.30
2022-09-13T05:34:23.024Z,3.53
2022-09-13T05:36:54.073Z,2.67
2022-09-13T05:39:36.503Z,3.17
2022-09-13T05:42:08.802Z,3.30
2022-09-13T05:44:35.395Z,2.73
2022-09-13T05:47:01.914Z,3.00
2022-09-13T05:49:28.500Z,2.90
2022-09-13T05:51:55.039Z,3.07
2022-09-13T05:54:21.644Z,2.73
2022-09-13T05:56:48.441Z,3.20
2022-09-13T05:59:15.126Z,2.97
2022-09-13T06:01:42.117Z,3.07
2022-09-13T06:04:08.775Z,3.23
2022-09-13T06:06:35.998Z,3.70
2022-09-13T06:09:02.671Z,3.20
2022-09-13T06:11:29.266Z,2.63
2022-09-13T06:13:55.839Z,3.90
2022-09-13T06:16:22.524Z,3.90
2022-09-13T06:18:49.710Z,3.43
2022-09-13T06:21:17.981Z,3.57
2022-09-13T06:23:44.830Z,3.20
2022-09-13T06:26:11.365Z,3.67
2022-09-13T06:28:37.881Z,3.90
2022-09-13T06:31:04.497Z,3.10
2022-09-13T06:33:31.245Z,3.17
2022-09-13T06:35:57.794Z,3.53
2022-09-13T06:38:24.817Z,3.73
2022-09-13T06:40:51.390Z,3.27
2022-09-13T06:43:17.967Z,3.00
2022-09-13T06:45:44.560Z,3.63
2022-09-13T06:48:11.113Z,3.57
2022-09-13T06:50:37.642Z,3.17
2022-09-13T06:53:04.206Z,3.23
2022-09-13T06:55:30.741Z,2.73
2022-09-13T06:57:57.541Z,2.80
2022-09-13T07:00:24.092Z,3.10
2022-09-13T07:02:50.631Z,3.63
2022-09-13T07:05:18.870Z,3.43
2022-09-13T07:07:45.463Z,3.70
2022-09-13T07:10:12.285Z,2.87
2022-09-13T07:12:39.145Z,3.70
2022-09-13T07:15:05.774Z,2.63
2022-09-13T07:17:32.356Z,2.67
2022-09-13T07:19:58.981Z,3.53
2022-09-13T07:22:27.757Z,3.60
2022-09-13T07:24:54.521Z,3.40
2022-09-13T07:27:21.101Z,4.00
2022-09-13T07:29:47.631Z,3.27
2022-09-13T07:32:14.433Z,3.70
2022-09-13T07:34:41.007Z,3.30
2022-09-13T07:37:07.761Z,3.40
2022-09-13T07:39:34.318Z,2.97
2022-09-13T07:42:00.818Z,3.27
2022-09-13T07:44:27.355Z,3.43
2022-09-13T07:46:53.951Z,3.43
2022-09-13T07:49:20.534Z,2.50
2022-09-13T07:51:47.138Z,4.07
2022-09-13T07:54:13.872Z,3.87
2022-09-13T07:56:41.061Z,3.47
2022-09-13T07:59:07.638Z,3.50
2022-09-13T08:01:34.481Z,3.30
2022-09-13T08:04:01.253Z,2.90
2022-09-13T08:06:27.872Z,3.53
2022-09-13T08:08:54.395Z,3.00
2022-09-13T08:11:21.103Z,3.10
2022-09-13T08:13:48.100Z,2.87
2022-09-13T08:16:14.707Z,3.17
2022-09-13T08:18:41.353Z,3.40
2022-09-13T08:21:07.922Z,3.00
2022-09-13T08:23:34.689Z,3.20
2022-09-13T08:26:01.731Z,3.20
2022-09-13T08:28:28.285Z,3.60
2022-09-13T08:30:54.833Z,3.27
2022-09-13T08:33:21.385Z,3.10
2022-09-13T08:35:47.975Z,2.43
2022-09-13T08:38:14.535Z,2.97
2022-09-13T08:40:41.037Z,3.50
2022-09-13T08:43:07.682Z,3.47
2022-09-13T08:45:34.218Z,3.13
2022-09-13T08:48:00.786Z,3.23
2022-09-13T08:50:27.468Z,3.50
2022-09-13T08:52:53.986Z,3.90
2022-09-13T08:55:20.537Z,2.90
2022-09-13T08:57:47.042Z,2.60
2022-09-13T09:00:16.733Z,2.70
2022-09-13T09:02:45.488Z,2.80
2022-09-13T09:05:12.044Z,3.10
2022-09-13T09:07:38.870Z,2.90
2022-09-13T09:10:05.375Z,3.00
2022-09-13T09:12:32.053Z,3.20
2022-09-13T09:14:58.622Z,2.60
2022-09-13T09:17:25.246Z,2.63
2022-09-13T09:19:53.391Z,2.33
2022-09-13T09:22:21.854Z,3.03
2022-09-13T09:24:48.716Z,3.13
2022-09-13T09:27:15.317Z,2.60
2022-09-13T09:29:44.074Z,2.50
2022-09-13T09:32:10.616Z,2.60
2022-09-13T09:34:42.642Z,2.60
2022-09-13T09:37:09.300Z,2.30
2022-09-13T09:39:39.213Z,2.90
2022-09-13T09:42:05.845Z,2.67
2022-09-13T09:44:33.869Z,4.10
2022-09-13T09:47:00.588Z,2.90
2022-09-13T09:49:46.094Z,3.40
2022-09-13T09:52:12.845Z,3.40
2022-09-13T09:54:41.565Z,3.77
2022-09-13T09:57:08.155Z,3.60
2022-09-13T09:59:34.700Z,2.93
2022-09-13T10:02:01.920Z,3.17
2022-09-13T10:04:29.035Z,2.80
2022-09-13T10:06:55.569Z,2.77
2022-09-13T10:09:22.379Z,3.23
2022-09-13T10:11:49.001Z,2.83
2022-09-13T10:14:16.778Z,2.97
2022-09-13T10:16:43.323Z,2.30
2022-09-13T10:19:11.573Z,2.70
2022-09-13T10:21:38.279Z,3.27
2022-09-13T10:24:05.025Z,2.50
2022-09-13T10:26:31.546Z,1.70
2022-09-13T10:28:58.194Z,2.80
2022-09-13T10:31:24.788Z,2.30
2022-09-13T10:33:51.395Z,2.30
2022-09-13T10:36:29.603Z,2.00
2022-09-13T10:39:04.528Z,2.47
2022-09-13T10:41:31.072Z,2.77
2022-09-13T10:43:57.731Z,2.20
2022-09-13T10:46:24.366Z,2.33
2022-09-13T10:48:57.367Z,2.10
2022-09-13T10:51:23.938Z,2.40
2022-09-13T10:53:50.486Z,1.80
2022-09-13T10:56:16.998Z,2.80
2022-09-13T10:58:43.578Z,1.93
2022-09-13T11:01:10.295Z,1.80
2022-09-13T11:03:37.004Z,1.87
2022-09-13T11:06:03.533Z,2.40
2022-09-13T11:08:30.077Z,1.70
2022-09-13T11:10:56.681Z,1.90
2022-09-13T11:13:23.199Z,2.00
2022-09-13T11:15:49.728Z,1.97
2022-09-13T11:18:16.296Z,1.80
2022-09-13T11:20:42.825Z,2.00
2022-09-13T11:23:09.428Z,2.23
2022-09-13T11:25:36.098Z,1.97
2022-09-13T11:28:02.702Z,2.00
2022-09-13T11:30:30.168Z,2.23
2022-09-13T11:32:57.394Z,1.93
2022-09-13T11:35:23.938Z,1.85
2022-09-13T11:37:50.580Z,1.80
2022-09-13T11:40:17.335Z,2.33
2022-09-13T11:42:43.941Z,2.13
2022-09-13T11:45:10.476Z,2.05
2022-09-13T11:47:37.048Z,2.15
2022-09-13T11:50:03.850Z,2.37
2022-09-13T11:52:30.385Z,2.10
2022-09-13T11:54:57.060Z,1.92
2022-09-13T11:57:23.737Z,2.53
2022-09-13T11:59:50.419Z,2.17
2022-09-13T12:02:17.081Z,2.00
2022-09-13T12:04:43.849Z,2.42
2022-09-13T12:07:10.417Z,2.78
2022-09-13T12:09:37.077Z,2.00
2022-09-13T12:12:04.034Z,2.28
2022-09-13T12:14:30.728Z,2.15
2022-09-13T12:16:57.355Z,2.63
2022-09-13T12:19:23.969Z,2.30
2022-09-13T12:21:50.566Z,1.70
2022-09-13T12:24:17.153Z,1.63
2022-09-13T12:26:45.125Z,2.35
2022-09-13T12:29:11.656Z,1.88
2022-09-13T12:31:38.371Z,1.92
2022-09-13T12:34:05.262Z,2.45
2022-09-13T12:36:31.988Z,2.20
2022-09-13T12:38:59.022Z,1.65
2022-09-13T12:41:25.546Z,1.55
2022-09-13T12:43:52.293Z,1.98
2022-09-13T12:46:18.838Z,1.77
2022-09-13T12:48:45.476Z,1.60
2022-09-13T12:51:12.100Z,1.42
2022-09-13T12:53:38.637Z,1.55
2022-09-13T12:56:05.276Z,1.05
2022-09-13T12:58:31.890Z,1.00
2022-09-13T13:00:58.558Z,1.50
2022-09-13T13:03:25.381Z,1.27
2022-09-13T13:05:51.970Z,1.17
2022-09-13T13:08:18.672Z,1.10
2022-09-13T13:10:45.313Z,1.48
2022-09-13T13:13:11.915Z,1.20
2022-09-13T13:15:38.608Z,1.38
2022-09-13T13:18:05.120Z,1.45
2022-09-13T13:20:31.707Z,1.80
2022-09-13T13:22:58.207Z,1.20
2022-09-13T13:25:24.756Z,1.67
2022-09-13T13:27:54.986Z,1.52
2022-09-13T13:30:21.571Z,0.95
2022-09-13T13:32:48.313Z,1.15
2022-09-13T13:35:14.822Z,1.00
2022-09-13T13:37:41.388Z,1.35
2022-09-13T13:40:07.973Z,1.45
2022-09-13T13:42:38.252Z,1.70
2022-09-13T13:45:04.908Z,1.60
2022-09-13T13:47:32.617Z,1.77
2022-09-13T13:50:00.004Z,2.10
2022-09-13T13:52:26.548Z,2.13
2022-09-13T13:54:58.320Z,2.38
2022-09-13T13:57:25.138Z,1.80
2022-09-13T13:59:51.713Z,2.17
2022-09-13T14:02:18.341Z,2.30
2022-09-13T14:04:44.913Z,2.45
2022-09-13T14:07:19.510Z,2.20
2022-09-13T14:09:46.550Z,2.85
2022-09-13T14:12:13.116Z,3.47
2022-09-13T14:14:39.665Z,3.85
2022-09-13T14:17:06.282Z,4.45
2022-09-13T14:19:32.873Z,3.25
2022-09-13T14:21:59.428Z,3.22
2022-09-13T14:24:26.000Z,3.45
2022-09-13T14:26:52.608Z,2.42
2022-09-13T14:29:19.300Z,2.85
2022-09-13T14:31:45.873Z,2.90
2022-09-13T14:34:12.460Z,3.33
2022-09-13T14:36:39.071Z,2.95
2022-09-13T14:39:05.723Z,2.50
2022-09-13T14:41:32.298Z,2.88
2022-09-13T14:43:58.797Z,3.38
2022-09-13T14:46:25.347Z,3.58
2022-09-13T14:48:52.149Z,3.20
2022-09-13T14:51:18.776Z,3.63
2022-09-13T14:53:45.371Z,3.50
2022-09-13T14:56:11.923Z,2.83
2022-09-13T14:58:38.433Z,3.22
2022-09-13T15:01:05.561Z,3.42
2022-09-13T15:03:32.161Z,3.20
2022-09-13T15:05:58.641Z,3.20
2022-09-13T15:08:25.566Z,3.10
2022-09-13T15:10:52.252Z,3.38
2022-09-13T15:13:18.746Z,4.40
2022-09-13T15:15:45.311Z,3.50
2022-09-13T15:18:11.834Z,3.50
2022-09-13T15:20:38.325Z,3.97
2022-09-13T15:23:04.831Z,3.80
2022-09-13T15:25:31.844Z,3.40
2022-09-13T15:27:58.455Z,4.25
2022-09-13T15:30:24.981Z,4.20
2022-09-13T15:32:51.462Z,4.20
2022-09-13T15:35:18.008Z,3.83
2022-09-13T15:37:44.523Z,4.60
2022-09-13T15:40:11.084Z,4.25
2022-09-13T15:42:37.639Z,4.72
2022-09-13T15:45:04.157Z,4.15
2022-09-13T15:47:30.643Z,4.43
2022-09-13T15:49:58.518Z,3.78
2022-09-13T15:52:25.047Z,4.55
2022-09-13T15:54:51.559Z,4.22
2022-09-13T15:57:18.125Z,4.18
2022-09-13T15:59:44.640Z,4.38
2022-09-13T16:02:11.423Z,5.63
2022-09-13T16:04:38.181Z,6.03
2022-09-13T16:07:04.807Z,6.28
2022-09-13T16:09:31.414Z,6.25
2022-09-13T16:11:58.011Z,6.63
2022-09-13T16:14:24.685Z,5.93
2022-09-13T16:16:52.040Z,6.20
2022-09-13T16:19:18.652Z,7.83
2022-09-13T16:21:45.186Z,6.80
2022-09-13T16:24:11.742Z,7.95
2022-09-13T16:26:38.254Z,7.87
2022-09-13T16:29:04.833Z,7.63
2022-09-13T16:31:31.477Z,6.20
2022-09-13T16:33:58.232Z,6.93
2022-09-13T16:36:25.178Z,8.57
2022-09-13T16:38:51.747Z,8.03
2022-09-13T16:41:18.350Z,6.30
2022-09-13T16:43:44.882Z,8.30
2022-09-13T16:46:11.629Z,5.47
2022-09-13T16:48:38.293Z,6.70
2022-09-13T16:51:04.841Z,6.27
2022-09-13T16:53:31.421Z,7.87
2022-09-13T16:55:58.006Z,7.20
2022-09-13T16:58:24.531Z,5.90
2022-09-13T17:00:51.076Z,6.43
2022-09-13T17:03:17.679Z,7.27
2022-09-13T17:05:44.280Z,7.17
2022-09-13T17:08:10.813Z,8.77
2022-09-13T17:10:37.392Z,6.37
2022-09-13T17:13:05.127Z,5.27
2022-09-13T17:15:31.696Z,5.90
2022-09-13T17:17:58.254Z,5.70
2022-09-13T17:20:24.829Z,8.07
2022-09-13T17:22:51.356Z,6.57
2022-09-13T17:25:20.740Z,7.90
2022-09-13T17:27:47.535Z,6.33
2022-09-13T17:30:14.122Z,6.17
2022-09-13T17:32:40.715Z,6.70
2022-09-13T17:35:08.150Z,7.80
2022-09-13T17:37:34.667Z,4.70
2022-09-13T17:40:01.520Z,7.23
2022-09-13T17:42:28.192Z,6.07
2022-09-13T17:44:54.798Z,6.57
2022-09-13T17:47:21.350Z,8.20
2022-09-13T17:49:47.930Z,5.37
2022-09-13T17:52:14.519Z,6.43
2022-09-13T17:54:41.076Z,6.27
2022-09-13T17:57:07.664Z,6.40
2022-09-13T17:59:34.303Z,5.63
2022-09-13T18:02:01.035Z,6.40
2022-09-13T18:04:27.796Z,5.10
2022-09-13T18:06:54.362Z,4.97
2022-09-13T18:09:20.931Z,4.73
2022-09-13T18:11:47.438Z,4.10
2022-09-13T18:14:13.979Z,5.40
2022-09-13T18:16:40.527Z,4.90
2022-09-13T18:19:07.269Z,5.40
2022-09-13T18:21:34.075Z,6.40
2022-09-13T18:24:01.625Z,6.63
2022-09-13T18:26:28.209Z,5.23
2022-09-13T18:28:55.857Z,4.97
2022-09-13T18:31:22.423Z,5.10
2022-09-13T18:33:49.147Z,4.80
2022-09-13T18:36:16.209Z,5.33
2022-09-13T18:38:42.856Z,4.63
2022-09-13T18:41:09.419Z,6.10
2022-09-13T18:43:36.093Z,5.33
2022-09-13T18:46:04.963Z,6.60
2022-09-13T18:48:32.831Z,5.10
2022-09-13T18:50:59.561Z,6.00
2022-09-13T18:53:34.426Z,5.20
2022-09-13T18:56:01.354Z,5.67
2022-09-13T18:58:28.157Z,5.93
2022-09-13T19:00:54.743Z,5.27
2022-09-13T19:03:21.454Z,6.50
2022-09-13T19:05:48.672Z,6.53
2022-09-13T19:08:15.252Z,4.10
2022-09-13T19:10:41.863Z,5.00
2022-09-13T19:13:08.430Z,7.27
2022-09-13T19:15:35.389Z,6.33
2022-09-13T19:18:02.061Z,5.30
2022-09-13T19:20:28.655Z,4.83
2022-09-13T19:22:55.481Z,5.57
2022-09-13T19:25:22.923Z,6.10
2022-09-13T19:27:49.526Z,5.60
2022-09-13T19:30:16.135Z,4.70
2022-09-13T19:32:42.777Z,5.40
2022-09-13T19:35:09.677Z,5.20
2022-09-13T19:37:36.540Z,5.17
2022-09-13T19:40:04.427Z,5.30
2022-09-13T19:42:31.128Z,5.33
2022-09-13T19:44:57.706Z,5.20
2022-09-13T19:50:11.130Z,4.67
2022-09-13T19:52:38.196Z,5.80
2022-09-13T19:55:04.729Z,5.57
2022-09-13T19:57:31.589Z,5.67
2022-09-13T19:59:58.134Z,5.37
2022-09-13T20:02:25.083Z,5.30
2022-09-13T20:04:51.792Z,5.53
2022-09-13T20:07:18.341Z,4.53
2022-09-13T20:09:46.911Z,4.40
2022-09-13T20:12:13.440Z,5.20
2022-09-13T20:14:39.983Z,4.97
2022-09-13T20:17:07.097Z,4.20
2022-09-13T20:19:41.866Z,3.93
2022-09-13T20:22:11.362Z,4.80
2022-09-13T20:24:38.005Z,5.70
2022-09-13T20:27:04.631Z,5.03
2022-09-13T20:29:31.708Z,4.30
2022-09-13T20:32:00.005Z,4.70
2022-09-13T20:34:27.151Z,4.00
2022-09-13T20:36:53.781Z,3.77
2022-09-13T20:39:20.417Z,4.87
2022-09-13T20:41:49.173Z,4.80
2022-09-13T20:44:15.750Z,3.90
2022-09-13T20:46:43.223Z,5.10
2022-09-13T20:49:10.022Z,5.40
2022-09-13T20:51:37.199Z,3.60
2022-09-13T20:54:03.880Z,4.23
2022-09-13T20:56:30.728Z,3.43
2022-09-13T20:58:58.011Z,4.70
2022-09-13T21:01:24.997Z,4.20
2022-09-13T21:03:51.812Z,4.20
2022-09-13T21:06:19.212Z,3.30
2022-09-13T21:08:48.950Z,3.50
2022-09-13T21:11:15.555Z,3.30
2022-09-13T21:13:42.140Z,2.57
2022-09-13T21:16:08.675Z,2.13
2022-09-13T21:18:35.249Z,2.30
2022-09-13T21:21:01.843Z,2.20
2022-09-13T21:23:28.688Z,2.23
2022-09-13T21:25:55.210Z,1.80
2022-09-13T21:28:21.795Z,1.57
2022-09-13T21:30:48.454Z,1.43
2022-09-13T21:33:15.016Z,1.50
2022-09-13T21:35:41.660Z,1.00
2022-09-13T21:38:08.219Z,1.10
2022-09-13T21:40:34.915Z,1.80
2022-09-13T21:43:01.565Z,1.20
2022-09-13T21:45:28.142Z,1.70
2022-09-13T21:47:54.684Z,1.73
2022-09-13T21:50:21.357Z,1.30
2022-09-13T21:52:47.911Z,1.90
2022-09-13T21:55:14.462Z,1.43
2022-09-13T21:57:41.039Z,1.53
2022-09-13T22:00:09.089Z,1.47
2022-09-13T22:02:35.712Z,1.30
2022-09-13T22:05:02.349Z,1.70
2022-09-13T22:07:29.002Z,1.43
2022-09-13T22:09:55.740Z,1.10
2022-09-13T22:12:23.950Z,1.37
2022-09-13T22:14:50.898Z,1.30
2022-09-13T22:17:17.563Z,1.43
2022-09-13T22:19:44.100Z,1.10
2022-09-13T22:22:10.622Z,1.50
2022-09-13T22:24:37.136Z,1.23
2022-09-13T22:27:03.685Z,1.50
2022-09-13T22:29:30.288Z,0.87
2022-09-13T22:31:56.894Z,1.30
2022-09-13T22:34:23.925Z,1.20
2022-09-13T22:36:50.490Z,1.37
2022-09-13T22:39:17.078Z,1.20
2022-09-13T22:41:43.632Z,0.90
2022-09-13T22:44:10.248Z,1.60
2022-09-13T22:46:36.763Z,1.07
2022-09-13T22:49:03.269Z,2.07
2022-09-13T22:51:29.781Z,1.70
2022-09-13T22:53:56.349Z,1.30
2022-09-13T22:56:23.719Z,0.83
2022-09-13T22:58:50.318Z,1.10
2022-09-13T23:01:17.215Z,1.13
2022-09-13T23:03:44.042Z,1.87
2022-09-13T23:06:10.687Z,1.27
2022-09-13T23:08:37.314Z,1.77
2022-09-13T23:11:03.840Z,1.00
2022-09-13T23:13:30.464Z,1.17
2022-09-13T23:15:56.998Z,1.47
2022-09-13T23:18:23.484Z,1.50
2022-09-13T23:20:50.052Z,1.37
2022-09-13T23:23:16.585Z,2.30
2022-09-13T23:25:43.174Z,1.23
2022-09-13T23:28:09.674Z,1.30
2022-09-13T23:30:36.201Z,1.53
2022-09-13T23:33:02.784Z,1.40
2022-09-13T23:35:29.556Z,2.50
2022-09-13T23:37:56.124Z,1.60
2022-09-13T23:40:22.778Z,1.10
2022-09-13T23:42:49.484Z,1.17
2022-09-13T23:45:16.011Z,0.93
2022-09-13T23:47:42.537Z,1.40
2022-09-13T23:50:09.074Z,1.60
2022-09-13T23:52:35.629Z,1.80
2022-09-13T23:55:04.102Z,1.80
2022-09-13T23:57:30.698Z,1.60
2022-09-13T23:59:57.233Z,1.10
